sensor_id;sensor_type;location;lat;lon;timestamp;P1;durP1;ratioP1;P2;durP2;ratioP2
4519;SDS011;2272;49.226;8.108;2023-05-13T00:01:39;8.70;;;2.57;;
4519;SDS011;2272;49.226;8.108;2023-05-13T00:04:06;2.40;;;2.30;;
4519;SDS011;2272;49.226;8.108;2023-05-13T00:06:34;5.37;;;3.37;;
4519;SDS011;2272;49.226;8.108;2023-05-13T00:09:02;4.33;;;2.43;;
4519;SDS011;2272;49.226;8.108;2023-05-13T00:11:29;7.90;;;2.73;;
4519;SDS011;2272;49.226;8.108;2023-05-13T00:13:56;2.83;;;2.63;;
4519;SDS011;2272;49.226;8.108;2023-05-13T00:16:22;2.63;;;2.53;;
4519;SDS011;2272;49.226;8.108;2023-05-13T00:18:51;3.00;;;2.80;;
4519;SDS011;2272;49.226;8.108;2023-05-13T00:21:18;3.30;;;3.10;;
4519;SDS011;2272;49.226;8.108;2023-05-13T00:23:45;4.43;;;3.23;;
4519;SDS011;2272;49.226;8.108;2023-05-13T00:26:13;2.73;;;2.63;;
4519;SDS011;2272;49.226;8.108;2023-05-13T00:28:39;7.87;;;2.70;;
4519;SDS011;2272;49.226;8.108;2023-05-13T00:31:06;2.60;;;2.50;;
4519;SDS011;2272;49.226;8.108;2023-05-13T00:33:34;2.77;;;2.60;;
4519;SDS011;2272;49.226;8.108;2023-05-13T00:36:00;2.50;;;2.40;;
4519;SDS011;2272;49.226;8.108;2023-05-13T00:38:27;3.80;;;3.17;;
4519;SDS011;2272;49.226;8.108;2023-05-13T00:40:54;3.00;;;2.80;;
4519;SDS011;2272;49.226;8.108;2023-05-13T00:43:22;3.03;;;2.73;;
4519;SDS011;2272;49.226;8.108;2023-05-13T00:45:49;3.30;;;2.47;;
4519;SDS011;2272;49.226;8.108;2023-05-13T00:48:16;3.20;;;3.00;;
4519;SDS011;2272;49.226;8.108;2023-05-13T00:50:42;2.57;;;2.47;;
4519;SDS011;2272;49.226;8.108;2023-05-13T00:53:09;3.20;;;2.80;;
4519;SDS011;2272;49.226;8.108;2023-05-13T00:55:39;3.63;;;2.40;;
4519;SDS011;2272;49.226;8.108;2023-05-13T00:58:07;2.33;;;2.23;;
4519;SDS011;2272;49.226;8.108;2023-05-13T01:00:36;2.93;;;2.70;;
4519;SDS011;2272;49.226;8.108;2023-05-13T01:03:11;3.20;;;2.90;;
4519;SDS011;2272;49.226;8.108;2023-05-13T01:05:55;2.63;;;2.53;;
4519;SDS011;2272;49.226;8.108;2023-05-13T01:08:28;3.70;;;3.40;;
4519;SDS011;2272;49.226;8.108;2023-05-13T01:11:03;3.00;;;2.90;;
4519;SDS011;2272;49.226;8.108;2023-05-13T01:13:36;2.80;;;2.70;;
4519;SDS011;2272;49.226;8.108;2023-05-13T01:16:10;5.20;;;3.03;;
4519;SDS011;2272;49.226;8.108;2023-05-13T01:18:42;3.60;;;3.33;;
4519;SDS011;2272;49.226;8.108;2023-05-13T01:21:11;3.33;;;3.03;;
4519;SDS011;2272;49.226;8.108;2023-05-13T01:23:39;2.67;;;2.40;;
4519;SDS011;2272;49.226;8.108;2023-05-13T01:26:06;6.90;;;2.40;;
4519;SDS011;2272;49.226;8.108;2023-05-13T01:28:32;4.00;;;3.70;;
4519;SDS011;2272;49.226;8.108;2023-05-13T01:30:59;3.50;;;3.27;;
4519;SDS011;2272;49.226;8.108;2023-05-13T01:33:26;3.63;;;3.43;;
4519;SDS011;2272;49.226;8.108;2023-05-13T01:35:54;2.83;;;2.57;;
4519;SDS011;2272;49.226;8.108;2023-05-13T01:38:21;3.53;;;3.23;;
4519;SDS011;2272;49.226;8.108;2023-05-13T01:40:51;3.47;;;3.37;;
4519;SDS011;2272;49.226;8.108;2023-05-13T01:43:18;4.10;;;3.13;;
4519;SDS011;2272;49.226;8.108;2023-05-13T01:45:44;3.93;;;3.73;;
4519;SDS011;2272;49.226;8.108;2023-05-13T01:48:11;3.30;;;3.10;;
4519;SDS011;2272;49.226;8.108;2023-05-13T01:50:38;4.27;;;3.93;;
4519;SDS011;2272;49.226;8.108;2023-05-13T01:53:05;5.77;;;3.87;;
4519;SDS011;2272;49.226;8.108;2023-05-13T01:55:31;5.00;;;4.50;;
4519;SDS011;2272;49.226;8.108;2023-05-13T01:57:59;5.13;;;4.63;;
4519;SDS011;2272;49.226;8.108;2023-05-13T02:00:26;4.90;;;4.60;;
4519;SDS011;2272;49.226;8.108;2023-05-13T02:02:53;5.07;;;4.50;;
4519;SDS011;2272;49.226;8.108;2023-05-13T02:05:20;7.47;;;4.90;;
4519;SDS011;2272;49.226;8.108;2023-05-13T02:07:47;5.50;;;5.10;;
4519;SDS011;2272;49.226;8.108;2023-05-13T02:10:14;5.30;;;4.90;;
4519;SDS011;2272;49.226;8.108;2023-05-13T02:12:40;6.33;;;5.40;;
4519;SDS011;2272;49.226;8.108;2023-05-13T02:15:09;5.47;;;5.00;;
4519;SDS011;2272;49.226;8.108;2023-05-13T02:17:36;5.03;;;4.73;;
4519;SDS011;2272;49.226;8.108;2023-05-13T02:20:03;19.93;;;5.63;;
4519;SDS011;2272;49.226;8.108;2023-05-13T02:22:31;9.60;;;4.70;;
4519;SDS011;2272;49.226;8.108;2023-05-13T02:24:57;5.67;;;5.17;;
4519;SDS011;2272;49.226;8.108;2023-05-13T02:27:24;7.53;;;5.37;;
4519;SDS011;2272;49.226;8.108;2023-05-13T02:29:51;5.80;;;5.40;;
4519;SDS011;2272;49.226;8.108;2023-05-13T02:32:19;6.17;;;5.70;;
4519;SDS011;2272;49.226;8.108;2023-05-13T02:34:46;6.37;;;5.77;;
4519;SDS011;2272;49.226;8.108;2023-05-13T02:37:13;6.43;;;5.93;;
4519;SDS011;2272;49.226;8.108;2023-05-13T02:39:39;6.33;;;5.80;;
4519;SDS011;2272;49.226;8.108;2023-05-13T02:42:06;7.70;;;7.03;;
4519;SDS011;2272;49.226;8.108;2023-05-13T02:44:33;8.00;;;7.20;;
4519;SDS011;2272;49.226;8.108;2023-05-13T02:46:59;7.40;;;6.23;;
4519;SDS011;2272;49.226;8.108;2023-05-13T02:49:27;6.87;;;6.17;;
4519;SDS011;2272;49.226;8.108;2023-05-13T02:51:54;7.23;;;6.63;;
4519;SDS011;2272;49.226;8.108;2023-05-13T02:54:21;7.87;;;5.57;;
4519;SDS011;2272;49.226;8.108;2023-05-13T02:56:47;6.80;;;6.20;;
4519;SDS011;2272;49.226;8.108;2023-05-13T02:59:14;16.40;;;6.90;;
4519;SDS011;2272;49.226;8.108;2023-05-13T03:01:41;9.13;;;6.57;;
4519;SDS011;2272;49.226;8.108;2023-05-13T03:04:07;8.80;;;6.67;;
4519;SDS011;2272;49.226;8.108;2023-05-13T03:06:35;7.90;;;7.10;;
4519;SDS011;2272;49.226;8.108;2023-05-13T03:09:02;8.23;;;6.23;;
4519;SDS011;2272;49.226;8.108;2023-05-13T03:11:29;6.43;;;5.83;;
4519;SDS011;2272;49.226;8.108;2023-05-13T03:13:56;5.70;;;5.30;;
4519;SDS011;2272;49.226;8.108;2023-05-13T03:16:22;9.13;;;5.60;;
4519;SDS011;2272;49.226;8.108;2023-05-13T03:18:49;7.47;;;6.20;;
4519;SDS011;2272;49.226;8.108;2023-05-13T03:21:16;5.70;;;5.30;;
4519;SDS011;2272;49.226;8.108;2023-05-13T03:23:44;6.83;;;6.17;;
4519;SDS011;2272;49.226;8.108;2023-05-13T03:26:10;6.80;;;6.20;;
4519;SDS011;2272;49.226;8.108;2023-05-13T03:28:37;8.10;;;5.83;;
4519;SDS011;2272;49.226;8.108;2023-05-13T03:31:04;5.23;;;4.80;;
4519;SDS011;2272;49.226;8.108;2023-05-13T03:33:30;5.47;;;4.97;;
4519;SDS011;2272;49.226;8.108;2023-05-13T03:35:57;4.97;;;4.63;;
4519;SDS011;2272;49.226;8.108;2023-05-13T03:38:24;5.40;;;5.03;;
4519;SDS011;2272;49.226;8.108;2023-05-13T03:40:52;4.80;;;4.60;;
4519;SDS011;2272;49.226;8.108;2023-05-13T03:43:18;4.90;;;4.50;;
4519;SDS011;2272;49.226;8.108;2023-05-13T03:45:45;4.97;;;4.40;;
4519;SDS011;2272;49.226;8.108;2023-05-13T03:48:13;4.63;;;4.33;;
4519;SDS011;2272;49.226;8.108;2023-05-13T03:50:40;5.83;;;5.00;;
4519;SDS011;2272;49.226;8.108;2023-05-13T03:53:07;4.80;;;4.57;;
4519;SDS011;2272;49.226;8.108;2023-05-13T03:55:33;4.93;;;4.53;;
4519;SDS011;2272;49.226;8.108;2023-05-13T03:58:09;4.67;;;4.37;;
4519;SDS011;2272;49.226;8.108;2023-05-13T04:00:36;4.43;;;4.13;;
4519;SDS011;2272;49.226;8.108;2023-05-13T04:03:03;4.57;;;4.27;;
4519;SDS011;2272;49.226;8.108;2023-05-13T04:05:29;4.17;;;3.87;;
4519;SDS011;2272;49.226;8.108;2023-05-13T04:07:56;4.97;;;4.53;;
4519;SDS011;2272;49.226;8.108;2023-05-13T04:10:23;7.10;;;4.20;;
4519;SDS011;2272;49.226;8.108;2023-05-13T04:12:49;3.87;;;3.67;;
4519;SDS011;2272;49.226;8.108;2023-05-13T04:15:17;4.43;;;4.03;;
4519;SDS011;2272;49.226;8.108;2023-05-13T04:17:44;4.37;;;4.00;;
4519;SDS011;2272;49.226;8.108;2023-05-13T04:20:11;4.20;;;4.00;;
4519;SDS011;2272;49.226;8.108;2023-05-13T04:22:38;4.33;;;3.70;;
4519;SDS011;2272;49.226;8.108;2023-05-13T04:25:04;3.73;;;3.43;;
4519;SDS011;2272;49.226;8.108;2023-05-13T04:27:31;6.20;;;3.50;;
4519;SDS011;2272;49.226;8.108;2023-05-13T04:29:58;4.23;;;3.93;;
4519;SDS011;2272;49.226;8.108;2023-05-13T04:32:26;4.47;;;4.17;;
4519;SDS011;2272;49.226;8.108;2023-05-13T04:34:53;3.90;;;3.60;;
4519;SDS011;2272;49.226;8.108;2023-05-13T04:37:20;4.33;;;4.03;;
4519;SDS011;2272;49.226;8.108;2023-05-13T04:39:46;10.43;;;4.37;;
4519;SDS011;2272;49.226;8.108;2023-05-13T04:42:14;4.03;;;3.10;;
4519;SDS011;2272;49.226;8.108;2023-05-13T04:44:41;4.97;;;4.30;;
4519;SDS011;2272;49.226;8.108;2023-05-13T04:47:08;4.13;;;3.60;;
4519;SDS011;2272;49.226;8.108;2023-05-13T04:49:36;4.53;;;4.23;;
4519;SDS011;2272;49.226;8.108;2023-05-13T04:52:03;6.67;;;3.77;;
4519;SDS011;2272;49.226;8.108;2023-05-13T04:54:30;4.83;;;3.50;;
4519;SDS011;2272;49.226;8.108;2023-05-13T04:57:01;4.80;;;4.40;;
4519;SDS011;2272;49.226;8.108;2023-05-13T04:59:28;4.30;;;4.00;;
4519;SDS011;2272;49.226;8.108;2023-05-13T05:01:55;3.77;;;3.47;;
4519;SDS011;2272;49.226;8.108;2023-05-13T05:04:21;3.87;;;3.67;;
4519;SDS011;2272;49.226;8.108;2023-05-13T05:06:50;3.70;;;3.50;;
4519;SDS011;2272;49.226;8.108;2023-05-13T05:09:17;4.17;;;3.87;;
4519;SDS011;2272;49.226;8.108;2023-05-13T05:11:44;4.30;;;4.00;;
4519;SDS011;2272;49.226;8.108;2023-05-13T05:14:11;9.40;;;3.30;;
4519;SDS011;2272;49.226;8.108;2023-05-13T05:16:37;3.70;;;3.50;;
4519;SDS011;2272;49.226;8.108;2023-05-13T05:19:04;3.97;;;3.57;;
4519;SDS011;2272;49.226;8.108;2023-05-13T05:21:31;3.70;;;3.40;;
4519;SDS011;2272;49.226;8.108;2023-05-13T05:23:59;10.50;;;4.33;;
4519;SDS011;2272;49.226;8.108;2023-05-13T05:26:26;4.13;;;3.77;;
4519;SDS011;2272;49.226;8.108;2023-05-13T05:29:07;4.70;;;4.23;;
4519;SDS011;2272;49.226;8.108;2023-05-13T05:31:33;5.37;;;3.97;;
4519;SDS011;2272;49.226;8.108;2023-05-13T05:34:00;3.93;;;3.50;;
4519;SDS011;2272;49.226;8.108;2023-05-13T05:36:27;11.73;;;4.07;;
4519;SDS011;2272;49.226;8.108;2023-05-13T05:38:54;3.67;;;3.47;;
4519;SDS011;2272;49.226;8.108;2023-05-13T05:41:22;3.43;;;3.23;;
4519;SDS011;2272;49.226;8.108;2023-05-13T05:43:48;5.83;;;4.17;;
4519;SDS011;2272;49.226;8.108;2023-05-13T05:46:15;3.40;;;3.20;;
4519;SDS011;2272;49.226;8.108;2023-05-13T05:48:42;3.90;;;3.13;;
4519;SDS011;2272;49.226;8.108;2023-05-13T05:51:08;10.77;;;3.10;;
4519;SDS011;2272;49.226;8.108;2023-05-13T05:53:35;4.67;;;3.63;;
4519;SDS011;2272;49.226;8.108;2023-05-13T05:56:04;4.30;;;4.00;;
4519;SDS011;2272;49.226;8.108;2023-05-13T05:58:33;4.00;;;3.70;;
4519;SDS011;2272;49.226;8.108;2023-05-13T06:01:00;8.10;;;4.80;;
4519;SDS011;2272;49.226;8.108;2023-05-13T06:03:27;10.20;;;4.37;;
4519;SDS011;2272;49.226;8.108;2023-05-13T06:05:53;5.50;;;5.00;;
4519;SDS011;2272;49.226;8.108;2023-05-13T06:08:20;6.50;;;4.53;;
4519;SDS011;2272;49.226;8.108;2023-05-13T06:10:53;8.43;;;4.43;;
4519;SDS011;2272;49.226;8.108;2023-05-13T06:13:20;4.93;;;3.77;;
4519;SDS011;2272;49.226;8.108;2023-05-13T06:15:48;6.10;;;3.83;;
4519;SDS011;2272;49.226;8.108;2023-05-13T06:18:15;7.67;;;5.90;;
4519;SDS011;2272;49.226;8.108;2023-05-13T06:20:42;4.90;;;3.70;;
4519;SDS011;2272;49.226;8.108;2023-05-13T06:23:08;4.03;;;3.83;;
4519;SDS011;2272;49.226;8.108;2023-05-13T06:25:35;5.57;;;5.10;;
4519;SDS011;2272;49.226;8.108;2023-05-13T06:28:02;7.13;;;6.33;;
4519;SDS011;2272;49.226;8.108;2023-05-13T06:30:30;4.87;;;4.47;;
4519;SDS011;2272;49.226;8.108;2023-05-13T06:32:58;5.87;;;5.37;;
4519;SDS011;2272;49.226;8.108;2023-05-13T06:35:25;6.23;;;4.43;;
4519;SDS011;2272;49.226;8.108;2023-05-13T06:37:51;5.40;;;4.40;;
4519;SDS011;2272;49.226;8.108;2023-05-13T06:40:18;5.30;;;4.80;;
4519;SDS011;2272;49.226;8.108;2023-05-13T06:42:45;4.80;;;4.40;;
4519;SDS011;2272;49.226;8.108;2023-05-13T06:45:12;5.03;;;4.63;;
4519;SDS011;2272;49.226;8.108;2023-05-13T06:47:38;4.80;;;4.37;;
4519;SDS011;2272;49.226;8.108;2023-05-13T06:50:07;3.63;;;3.40;;
4519;SDS011;2272;49.226;8.108;2023-05-13T06:52:34;6.77;;;3.60;;
4519;SDS011;2272;49.226;8.108;2023-05-13T06:55:00;7.23;;;4.27;;
4519;SDS011;2272;49.226;8.108;2023-05-13T06:57:27;5.37;;;4.97;;
4519;SDS011;2272;49.226;8.108;2023-05-13T06:59:54;12.43;;;4.27;;
4519;SDS011;2272;49.226;8.108;2023-05-13T07:02:20;5.30;;;4.30;;
4519;SDS011;2272;49.226;8.108;2023-05-13T07:04:47;5.57;;;3.70;;
4519;SDS011;2272;49.226;8.108;2023-05-13T07:07:15;4.83;;;4.43;;
4519;SDS011;2272;49.226;8.108;2023-05-13T07:09:42;4.13;;;3.80;;
4519;SDS011;2272;49.226;8.108;2023-05-13T07:12:08;5.57;;;3.90;;
4519;SDS011;2272;49.226;8.108;2023-05-13T07:14:35;3.37;;;3.17;;
4519;SDS011;2272;49.226;8.108;2023-05-13T07:17:03;13.90;;;3.47;;
4519;SDS011;2272;49.226;8.108;2023-05-13T07:19:30;3.83;;;3.53;;
4519;SDS011;2272;49.226;8.108;2023-05-13T07:21:56;5.00;;;4.27;;
4519;SDS011;2272;49.226;8.108;2023-05-13T07:24:24;4.00;;;3.70;;
4519;SDS011;2272;49.226;8.108;2023-05-13T07:26:51;5.43;;;3.90;;
4519;SDS011;2272;49.226;8.108;2023-05-13T07:29:18;3.80;;;3.53;;
4519;SDS011;2272;49.226;8.108;2023-05-13T07:31:44;17.90;;;4.10;;
4519;SDS011;2272;49.226;8.108;2023-05-13T07:34:11;4.27;;;3.97;;
4519;SDS011;2272;49.226;8.108;2023-05-13T07:36:38;3.90;;;3.60;;
4519;SDS011;2272;49.226;8.108;2023-05-13T07:39:04;8.73;;;4.50;;
4519;SDS011;2272;49.226;8.108;2023-05-13T07:41:34;4.47;;;3.70;;
4519;SDS011;2272;49.226;8.108;2023-05-13T07:44:01;3.77;;;3.47;;
4519;SDS011;2272;49.226;8.108;2023-05-13T07:46:29;5.97;;;3.63;;
4519;SDS011;2272;49.226;8.108;2023-05-13T07:48:57;5.13;;;3.67;;
4519;SDS011;2272;49.226;8.108;2023-05-13T07:51:23;5.77;;;3.80;;
4519;SDS011;2272;49.226;8.108;2023-05-13T07:53:50;7.90;;;4.20;;
4519;SDS011;2272;49.226;8.108;2023-05-13T07:56:17;4.33;;;3.93;;
4519;SDS011;2272;49.226;8.108;2023-05-13T07:58:45;8.67;;;4.10;;
4519;SDS011;2272;49.226;8.108;2023-05-13T08:01:13;5.83;;;5.23;;
4519;SDS011;2272;49.226;8.108;2023-05-13T08:03:40;3.83;;;3.60;;
4519;SDS011;2272;49.226;8.108;2023-05-13T08:06:06;11.80;;;8.30;;
4519;SDS011;2272;49.226;8.108;2023-05-13T08:08:33;7.10;;;3.77;;
4519;SDS011;2272;49.226;8.108;2023-05-13T08:11:00;4.17;;;3.77;;
4519;SDS011;2272;49.226;8.108;2023-05-13T08:13:26;5.67;;;3.90;;
4519;SDS011;2272;49.226;8.108;2023-05-13T08:15:54;4.80;;;4.00;;
4519;SDS011;2272;49.226;8.108;2023-05-13T08:18:21;7.77;;;3.40;;
4519;SDS011;2272;49.226;8.108;2023-05-13T08:20:48;5.60;;;3.53;;
4519;SDS011;2272;49.226;8.108;2023-05-13T08:23:14;4.00;;;3.70;;
4519;SDS011;2272;49.226;8.108;2023-05-13T08:25:41;3.90;;;3.50;;
4519;SDS011;2272;49.226;8.108;2023-05-13T08:28:08;4.20;;;3.90;;
4519;SDS011;2272;49.226;8.108;2023-05-13T08:30:35;5.20;;;3.97;;
4519;SDS011;2272;49.226;8.108;2023-05-13T08:33:06;3.33;;;3.13;;
4519;SDS011;2272;49.226;8.108;2023-05-13T08:35:32;3.30;;;3.00;;
4519;SDS011;2272;49.226;8.108;2023-05-13T08:37:59;3.83;;;3.50;;
4519;SDS011;2272;49.226;8.108;2023-05-13T08:40:27;3.17;;;2.97;;
4519;SDS011;2272;49.226;8.108;2023-05-13T08:42:54;3.10;;;2.83;;
4519;SDS011;2272;49.226;8.108;2023-05-13T08:45:22;5.40;;;3.40;;
4519;SDS011;2272;49.226;8.108;2023-05-13T08:47:54;2.83;;;2.67;;
4519;SDS011;2272;49.226;8.108;2023-05-13T08:50:24;3.30;;;3.10;;
4519;SDS011;2272;49.226;8.108;2023-05-13T08:52:52;5.73;;;2.80;;
4519;SDS011;2272;49.226;8.108;2023-05-13T08:55:19;3.73;;;3.43;;
4519;SDS011;2272;49.226;8.108;2023-05-13T08:57:47;8.43;;;3.80;;
4519;SDS011;2272;49.226;8.108;2023-05-13T09:00:14;4.60;;;3.53;;
4519;SDS011;2272;49.226;8.108;2023-05-13T09:02:41;2.73;;;2.53;;
4519;SDS011;2272;49.226;8.108;2023-05-13T09:05:11;3.13;;;2.93;;
4519;SDS011;2272;49.226;8.108;2023-05-13T09:07:40;3.60;;;3.23;;
4519;SDS011;2272;49.226;8.108;2023-05-13T09:10:07;6.20;;;4.10;;
4519;SDS011;2272;49.226;8.108;2023-05-13T09:12:42;3.13;;;2.90;;
4519;SDS011;2272;49.226;8.108;2023-05-13T09:15:10;3.53;;;3.30;;
4519;SDS011;2272;49.226;8.108;2023-05-13T09:17:38;3.00;;;2.90;;
4519;SDS011;2272;49.226;8.108;2023-05-13T09:20:06;5.83;;;3.00;;
4519;SDS011;2272;49.226;8.108;2023-05-13T09:22:35;2.93;;;2.73;;
4519;SDS011;2272;49.226;8.108;2023-05-13T09:25:03;3.13;;;2.70;;
4519;SDS011;2272;49.226;8.108;2023-05-13T09:27:36;3.17;;;2.97;;
4519;SDS011;2272;49.226;8.108;2023-05-13T09:30:05;3.03;;;2.83;;
4519;SDS011;2272;49.226;8.108;2023-05-13T09:32:32;3.03;;;2.83;;
4519;SDS011;2272;49.226;8.108;2023-05-13T09:35:07;2.40;;;2.30;;
4519;SDS011;2272;49.226;8.108;2023-05-13T09:37:41;2.90;;;2.80;;
4519;SDS011;2272;49.226;8.108;2023-05-13T09:40:12;4.63;;;2.53;;
4519;SDS011;2272;49.226;8.108;2023-05-13T09:42:40;4.73;;;3.73;;
4519;SDS011;2272;49.226;8.108;2023-05-13T09:45:08;15.87;;;2.70;;
4519;SDS011;2272;49.226;8.108;2023-05-13T09:47:36;3.23;;;3.03;;
4519;SDS011;2272;49.226;8.108;2023-05-13T09:50:04;3.60;;;3.40;;
4519;SDS011;2272;49.226;8.108;2023-05-13T09:52:32;2.97;;;2.80;;
4519;SDS011;2272;49.226;8.108;2023-05-13T09:55:00;6.00;;;3.30;;
4519;SDS011;2272;49.226;8.108;2023-05-13T09:57:30;7.53;;;3.10;;
4519;SDS011;2272;49.226;8.108;2023-05-13T09:59:57;4.97;;;3.00;;
4519;SDS011;2272;49.226;8.108;2023-05-13T10:02:25;5.73;;;3.63;;
4519;SDS011;2272;49.226;8.108;2023-05-13T10:04:53;3.83;;;2.77;;
4519;SDS011;2272;49.226;8.108;2023-05-13T10:07:21;4.53;;;4.00;;
4519;SDS011;2272;49.226;8.108;2023-05-13T10:09:50;4.00;;;3.70;;
4519;SDS011;2272;49.226;8.108;2023-05-13T10:12:18;3.93;;;3.60;;
4519;SDS011;2272;49.226;8.108;2023-05-13T10:14:50;4.30;;;3.87;;
4519;SDS011;2272;49.226;8.108;2023-05-13T10:17:18;2.83;;;2.70;;
4519;SDS011;2272;49.226;8.108;2023-05-13T10:19:47;3.13;;;2.93;;
4519;SDS011;2272;49.226;8.108;2023-05-13T10:22:14;2.70;;;2.60;;
4519;SDS011;2272;49.226;8.108;2023-05-13T10:24:45;3.20;;;3.00;;
4519;SDS011;2272;49.226;8.108;2023-05-13T10:27:12;3.43;;;3.13;;
4519;SDS011;2272;49.226;8.108;2023-05-13T10:29:39;3.70;;;3.40;;
4519;SDS011;2272;49.226;8.108;2023-05-13T10:32:09;3.47;;;3.20;;
4519;SDS011;2272;49.226;8.108;2023-05-13T10:34:37;3.93;;;3.47;;
4519;SDS011;2272;49.226;8.108;2023-05-13T10:37:10;3.40;;;3.13;;
4519;SDS011;2272;49.226;8.108;2023-05-13T10:39:56;2.70;;;2.60;;
4519;SDS011;2272;49.226;8.108;2023-05-13T10:42:40;11.20;;;3.73;;
4519;SDS011;2272;49.226;8.108;2023-05-13T10:45:10;5.03;;;3.67;;
4519;SDS011;2272;49.226;8.108;2023-05-13T10:47:40;6.13;;;2.77;;
4519;SDS011;2272;49.226;8.108;2023-05-13T10:50:21;4.30;;;3.50;;
4519;SDS011;2272;49.226;8.108;2023-05-13T10:52:49;8.60;;;3.20;;
4519;SDS011;2272;49.226;8.108;2023-05-13T10:55:20;2.70;;;2.50;;
4519;SDS011;2272;49.226;8.108;2023-05-13T11:00:36;3.10;;;2.80;;
4519;SDS011;2272;49.226;8.108;2023-05-13T11:03:12;3.90;;;3.40;;
4519;SDS011;2272;49.226;8.108;2023-05-13T11:05:41;4.47;;;3.60;;
4519;SDS011;2272;49.226;8.108;2023-05-13T11:08:11;3.80;;;3.50;;
4519;SDS011;2272;49.226;8.108;2023-05-13T11:10:37;3.00;;;2.80;;
4519;SDS011;2272;49.226;8.108;2023-05-13T11:13:06;3.20;;;3.03;;
4519;SDS011;2272;49.226;8.108;2023-05-13T11:15:43;3.10;;;3.00;;
4519;SDS011;2272;49.226;8.108;2023-05-13T11:18:11;4.40;;;2.93;;
4519;SDS011;2272;49.226;8.108;2023-05-13T11:20:38;3.67;;;3.37;;
4519;SDS011;2272;49.226;8.108;2023-05-13T11:23:05;4.53;;;2.83;;
4519;SDS011;2272;49.226;8.108;2023-05-13T11:25:32;3.30;;;2.97;;
4519;SDS011;2272;49.226;8.108;2023-05-13T11:28:00;10.80;;;3.30;;
4519;SDS011;2272;49.226;8.108;2023-05-13T11:30:33;4.43;;;3.07;;
4519;SDS011;2272;49.226;8.108;2023-05-13T11:32:59;3.27;;;2.93;;
4519;SDS011;2272;49.226;8.108;2023-05-13T11:35:33;3.00;;;2.83;;
4519;SDS011;2272;49.226;8.108;2023-05-13T11:38:01;3.13;;;2.57;;
4519;SDS011;2272;49.226;8.108;2023-05-13T11:40:30;3.37;;;3.07;;
4519;SDS011;2272;49.226;8.108;2023-05-13T11:42:58;3.50;;;3.17;;
4519;SDS011;2272;49.226;8.108;2023-05-13T11:45:25;3.73;;;3.43;;
4519;SDS011;2272;49.226;8.108;2023-05-13T11:47:53;3.80;;;3.47;;
4519;SDS011;2272;49.226;8.108;2023-05-13T11:50:36;3.03;;;2.70;;
4519;SDS011;2272;49.226;8.108;2023-05-13T11:53:02;3.20;;;3.00;;
4519;SDS011;2272;49.226;8.108;2023-05-13T11:55:30;5.27;;;3.50;;
4519;SDS011;2272;49.226;8.108;2023-05-13T11:57:58;2.80;;;2.60;;
4519;SDS011;2272;49.226;8.108;2023-05-13T12:00:34;3.43;;;2.50;;
4519;SDS011;2272;49.226;8.108;2023-05-13T12:03:07;2.80;;;2.60;;
4519;SDS011;2272;49.226;8.108;2023-05-13T12:05:37;3.27;;;3.07;;
4519;SDS011;2272;49.226;8.108;2023-05-13T12:08:05;2.50;;;2.30;;
4519;SDS011;2272;49.226;8.108;2023-05-13T12:10:34;3.00;;;2.83;;
4519;SDS011;2272;49.226;8.108;2023-05-13T12:15:43;2.90;;;2.67;;
4519;SDS011;2272;49.226;8.108;2023-05-13T12:18:11;4.07;;;2.80;;
4519;SDS011;2272;49.226;8.108;2023-05-13T12:20:46;2.73;;;2.53;;
4519;SDS011;2272;49.226;8.108;2023-05-13T12:23:18;4.37;;;2.20;;
4519;SDS011;2272;49.226;8.108;2023-05-13T12:25:46;7.90;;;2.50;;
4519;SDS011;2272;49.226;8.108;2023-05-13T12:28:25;3.03;;;2.80;;
4519;SDS011;2272;49.226;8.108;2023-05-13T12:31:01;5.43;;;2.50;;
4519;SDS011;2272;49.226;8.108;2023-05-13T12:33:30;10.10;;;2.03;;
4519;SDS011;2272;49.226;8.108;2023-05-13T12:36:17;2.90;;;2.60;;
4519;SDS011;2272;49.226;8.108;2023-05-13T12:38:53;3.20;;;2.47;;
4519;SDS011;2272;49.226;8.108;2023-05-13T12:41:26;3.17;;;2.07;;
4519;SDS011;2272;49.226;8.108;2023-05-13T12:43:55;4.03;;;2.20;;
4519;SDS011;2272;49.226;8.108;2023-05-13T12:46:28;2.90;;;2.70;;
4519;SDS011;2272;49.226;8.108;2023-05-13T12:48:56;2.80;;;2.60;;
4519;SDS011;2272;49.226;8.108;2023-05-13T12:51:28;2.87;;;2.73;;
4519;SDS011;2272;49.226;8.108;2023-05-13T12:53:55;20.67;;;2.80;;
4519;SDS011;2272;49.226;8.108;2023-05-13T12:56:25;5.80;;;3.00;;
4519;SDS011;2272;49.226;8.108;2023-05-13T12:58:52;5.50;;;3.23;;
4519;SDS011;2272;49.226;8.108;2023-05-13T13:01:24;6.20;;;3.00;;
4519;SDS011;2272;49.226;8.108;2023-05-13T13:03:56;3.10;;;2.57;;
4519;SDS011;2272;49.226;8.108;2023-05-13T13:06:34;3.03;;;2.70;;
4519;SDS011;2272;49.226;8.108;2023-05-13T13:09:06;5.10;;;2.23;;
4519;SDS011;2272;49.226;8.108;2023-05-13T13:11:35;4.77;;;2.60;;
4519;SDS011;2272;49.226;8.108;2023-05-13T13:14:03;4.00;;;2.80;;
4519;SDS011;2272;49.226;8.108;2023-05-13T13:16:33;3.50;;;3.23;;
4519;SDS011;2272;49.226;8.108;2023-05-13T13:19:01;13.40;;;5.03;;
4519;SDS011;2272;49.226;8.108;2023-05-13T13:21:28;4.30;;;3.90;;
4519;SDS011;2272;49.226;8.108;2023-05-13T13:23:58;3.07;;;2.77;;
4519;SDS011;2272;49.226;8.108;2023-05-13T13:26:25;3.83;;;2.70;;
4519;SDS011;2272;49.226;8.108;2023-05-13T13:28:52;3.10;;;2.50;;
4519;SDS011;2272;49.226;8.108;2023-05-13T13:31:19;3.23;;;2.40;;
4519;SDS011;2272;49.226;8.108;2023-05-13T13:33:45;2.50;;;2.30;;
4519;SDS011;2272;49.226;8.108;2023-05-13T13:36:15;16.17;;;3.03;;
4519;SDS011;2272;49.226;8.108;2023-05-13T13:38:42;6.20;;;3.33;;
4519;SDS011;2272;49.226;8.108;2023-05-13T13:41:10;4.63;;;3.60;;
4519;SDS011;2272;49.226;8.108;2023-05-13T13:43:37;8.73;;;3.30;;
4519;SDS011;2272;49.226;8.108;2023-05-13T13:46:03;6.57;;;3.43;;
4519;SDS011;2272;49.226;8.108;2023-05-13T13:48:30;3.17;;;2.97;;
4519;SDS011;2272;49.226;8.108;2023-05-13T13:50:57;13.53;;;4.10;;
4519;SDS011;2272;49.226;8.108;2023-05-13T13:53:23;3.13;;;2.93;;
4519;SDS011;2272;49.226;8.108;2023-05-13T13:55:50;3.43;;;3.23;;
4519;SDS011;2272;49.226;8.108;2023-05-13T13:58:18;4.13;;;3.20;;
4519;SDS011;2272;49.226;8.108;2023-05-13T14:00:46;5.40;;;3.30;;
4519;SDS011;2272;49.226;8.108;2023-05-13T14:03:12;4.07;;;3.30;;
4519;SDS011;2272;49.226;8.108;2023-05-13T14:05:39;7.73;;;3.60;;
4519;SDS011;2272;49.226;8.108;2023-05-13T14:08:06;3.13;;;2.93;;
4519;SDS011;2272;49.226;8.108;2023-05-13T14:10:33;6.50;;;3.17;;
4519;SDS011;2272;49.226;8.108;2023-05-13T14:12:59;2.83;;;2.63;;
4519;SDS011;2272;49.226;8.108;2023-05-13T14:15:28;7.13;;;3.70;;
4519;SDS011;2272;49.226;8.108;2023-05-13T14:17:55;4.50;;;4.10;;
4519;SDS011;2272;49.226;8.108;2023-05-13T14:20:22;9.60;;;3.43;;
4519;SDS011;2272;49.226;8.108;2023-05-13T14:22:49;4.40;;;3.13;;
4519;SDS011;2272;49.226;8.108;2023-05-13T14:25:16;3.20;;;3.00;;
4519;SDS011;2272;49.226;8.108;2023-05-13T14:27:43;3.13;;;2.93;;
4519;SDS011;2272;49.226;8.108;2023-05-13T14:30:10;3.20;;;3.00;;
4519;SDS011;2272;49.226;8.108;2023-05-13T14:32:40;4.53;;;3.53;;
4519;SDS011;2272;49.226;8.108;2023-05-13T14:35:08;3.57;;;3.23;;
4519;SDS011;2272;49.226;8.108;2023-05-13T14:37:35;3.00;;;2.80;;
4519;SDS011;2272;49.226;8.108;2023-05-13T14:40:02;3.00;;;2.80;;
4519;SDS011;2272;49.226;8.108;2023-05-13T14:42:29;3.10;;;2.90;;
4519;SDS011;2272;49.226;8.108;2023-05-13T14:44:56;3.30;;;3.00;;
4519;SDS011;2272;49.226;8.108;2023-05-13T14:47:23;2.53;;;2.37;;
4519;SDS011;2272;49.226;8.108;2023-05-13T14:49:51;5.03;;;2.73;;
4519;SDS011;2272;49.226;8.108;2023-05-13T14:52:18;2.47;;;2.27;;
4519;SDS011;2272;49.226;8.108;2023-05-13T14:54:45;3.10;;;2.90;;
4519;SDS011;2272;49.226;8.108;2023-05-13T14:57:12;2.73;;;2.63;;
4519;SDS011;2272;49.226;8.108;2023-05-13T14:59:39;3.20;;;2.97;;
4519;SDS011;2272;49.226;8.108;2023-05-13T15:02:06;3.20;;;2.47;;
4519;SDS011;2272;49.226;8.108;2023-05-13T15:04:33;2.67;;;2.57;;
4519;SDS011;2272;49.226;8.108;2023-05-13T15:07:01;2.70;;;2.60;;
4519;SDS011;2272;49.226;8.108;2023-05-13T15:09:28;3.03;;;2.83;;
4519;SDS011;2272;49.226;8.108;2023-05-13T15:11:55;3.07;;;2.97;;
4519;SDS011;2272;49.226;8.108;2023-05-13T15:14:22;2.97;;;2.77;;
4519;SDS011;2272;49.226;8.108;2023-05-13T15:16:50;3.23;;;3.00;;
4519;SDS011;2272;49.226;8.108;2023-05-13T15:19:16;2.80;;;2.70;;
4519;SDS011;2272;49.226;8.108;2023-05-13T15:21:43;2.23;;;2.13;;
4519;SDS011;2272;49.226;8.108;2023-05-13T15:24:12;6.53;;;2.50;;
4519;SDS011;2272;49.226;8.108;2023-05-13T15:26:39;5.43;;;4.30;;